createdAt,value
2023-02-14T00:01:55.720Z,62.10
2023-02-14T00:04:23.557Z,57.13
2023-02-14T00:06:51.320Z,63.90
2023-02-14T00:09:20.925Z,61.15
2023-02-14T00:11:51.754Z,64.40
2023-02-14T00:14:38.208Z,60.53
2023-02-14T00:17:06.029Z,64.57
2023-02-14T00:19:36.098Z,61.38
2023-02-14T00:22:05.278Z,62.90
2023-02-14T00:24:33.489Z,58.67
2023-02-14T00:27:01.341Z,57.53
2023-02-14T00:29:32.423Z,60.30
2023-02-14T00:32:02.822Z,57.70
2023-02-14T00:34:30.779Z,64.90
2023-02-14T00:37:01.853Z,59.95
2023-02-14T00:39:29.633Z,59.80
2023-02-14T00:41:57.642Z,54.80
2023-02-14T00:44:25.727Z,57.22
2023-02-14T00:46:56.380Z,63.95
2023-02-14T00:49:24.951Z,62.50
2023-02-14T00:51:53.016Z,59.88
2023-02-14T00:54:23.971Z,60.35
2023-02-14T00:56:51.877Z,63.72
2023-02-14T00:59:22.748Z,64.88
2023-02-14T01:01:56.542Z,60.92
2023-02-14T01:04:24.616Z,60.83
2023-02-14T01:06:53.992Z,56.97
2023-02-14T01:09:22.167Z,58.17
2023-02-14T01:11:50.155Z,59.00
2023-02-14T01:14:18.047Z,60.90
2023-02-14T01:16:46.859Z,61.20
2023-02-14T01:19:14.863Z,54.83
2023-02-14T01:21:44.926Z,67.18
2023-02-14T01:24:13.483Z,58.58
2023-02-14T01:26:43.952Z,64.35
2023-02-14T01:29:11.770Z,62.60
2023-02-14T01:31:48.714Z,65.00
2023-02-14T01:34:17.394Z,61.40
2023-02-14T01:36:47.854Z,65.70
2023-02-14T01:39:19.903Z,59.13
2023-02-14T01:41:48.858Z,55.88
2023-02-14T01:44:17.569Z,58.25
2023-02-14T01:46:47.757Z,57.47
2023-02-14T01:49:40.165Z,53.35
2023-02-14T01:52:20.114Z,68.93
2023-02-14T01:55:01.234Z,64.28
2023-02-14T01:57:43.369Z,64.03
2023-02-14T02:00:30.106Z,64.80
2023-02-14T02:03:00.015Z,57.65
2023-02-14T02:05:28.133Z,52.72
2023-02-14T02:08:00.202Z,58.35
2023-02-14T02:10:29.603Z,63.35
2023-02-14T02:13:03.684Z,58.78
2023-02-14T02:15:35.987Z,66.97
2023-02-14T02:18:26.792Z,66.40
2023-02-14T02:21:16.637Z,65.25
2023-02-14T02:24:10.091Z,65.13
2023-02-14T02:26:40.633Z,60.80
2023-02-14T02:29:27.065Z,61.97
2023-02-14T02:32:10.398Z,65.57
2023-02-14T02:34:58.130Z,61.80
2023-02-14T02:37:52.385Z,64.68
2023-02-14T02:40:44.879Z,61.03
2023-02-14T02:43:31.167Z,62.97
2023-02-14T02:46:23.024Z,56.20
2023-02-14T02:49:12.527Z,59.17
2023-02-14T02:52:14.657Z,61.58
2023-02-14T02:54:59.980Z,58.83
2023-02-14T02:57:38.884Z,62.92
2023-02-14T03:00:09.072Z,61.88
2023-02-14T03:03:03.598Z,60.35
2023-02-14T03:05:34.287Z,62.92
2023-02-14T03:08:03.714Z,63.58
2023-02-14T03:10:35.780Z,61.55
2023-02-14T03:13:44.621Z,66.75
2023-02-14T03:16:40.576Z,59.20
2023-02-14T03:19:23.153Z,64.05
2023-02-14T03:22:14.660Z,61.95
2023-02-14T03:24:53.018Z,57.80
2023-02-14T03:27:50.101Z,59.97
2023-02-14T03:30:42.045Z,56.13
2023-02-14T03:33:37.284Z,59.53
2023-02-14T03:36:15.037Z,60.55
2023-02-14T03:39:05.628Z,62.72
2023-02-14T03:41:43.646Z,59.08
2023-02-14T03:44:14.616Z,66.25
2023-02-14T03:46:52.917Z,59.13
2023-02-14T03:49:29.695Z,65.32
2023-02-14T03:52:01.481Z,61.13
2023-02-14T03:54:32.877Z,64.40
2023-02-14T03:57:21.954Z,58.53
2023-02-14T03:59:50.839Z,64.28
2023-02-14T04:02:41.234Z,65.95
2023-02-14T04:05:23.300Z,68.47
2023-02-14T04:07:53.703Z,65.95
2023-02-14T04:10:22.760Z,64.30
2023-02-14T04:12:50.988Z,66.75
2023-02-14T04:15:19.283Z,71.90
2023-02-14T04:18:05.978Z,65.35
2023-02-14T04:20:34.233Z,65.85
2023-02-14T04:23:03.511Z,73.88
2023-02-14T04:25:31.775Z,72.10
2023-02-14T04:27:59.568Z,82.55
2023-02-14T04:30:27.374Z,68.75
2023-02-14T04:32:55.249Z,67.68
2023-02-14T04:35:23.051Z,62.58
2023-02-14T04:37:50.699Z,64.82
2023-02-14T04:40:18.449Z,64.45
2023-02-14T04:42:47.095Z,74.30
2023-02-14T04:45:15.067Z,68.85
2023-02-14T04:47:43.302Z,66.53
2023-02-14T04:50:11.248Z,64.45
2023-02-14T04:52:39.136Z,65.53
2023-02-14T04:55:07.263Z,65.97
2023-02-14T04:57:35.016Z,63.13
2023-02-14T05:00:03.561Z,63.08
2023-02-14T05:02:31.966Z,65.53
2023-02-14T05:04:59.616Z,67.68
2023-02-14T05:07:27.462Z,67.50
2023-02-14T05:09:55.183Z,66.95
2023-02-14T05:12:22.803Z,64.03
2023-02-14T05:14:50.476Z,73.55
2023-02-14T05:17:18.116Z,71.50
2023-02-14T05:19:45.893Z,67.70
2023-02-14T05:22:13.671Z,71.43
2023-02-14T05:24:41.308Z,65.63
2023-02-14T05:27:11.679Z,70.07
2023-02-14T05:29:39.329Z,73.25
2023-02-14T05:32:07.111Z,68.88
2023-02-14T05:34:34.951Z,69.57
2023-02-14T05:37:03.642Z,70.50
2023-02-14T05:39:31.256Z,71.25
2023-02-14T05:41:59.486Z,71.95
2023-02-14T05:44:27.184Z,76.03
2023-02-14T05:46:55.340Z,72.60
2023-02-14T05:49:22.957Z,74.45
2023-02-14T05:51:50.629Z,72.28
2023-02-14T05:54:18.239Z,70.35
2023-02-14T05:56:45.916Z,67.95
2023-02-14T05:59:14.709Z,71.53
2023-02-14T06:01:42.286Z,85.97
2023-02-14T06:04:09.909Z,83.05
2023-02-14T06:06:37.592Z,70.80
2023-02-14T06:09:05.546Z,78.65
2023-02-14T06:11:33.258Z,67.43
2023-02-14T06:14:04.178Z,79.75
2023-02-14T06:16:32.110Z,68.88
2023-02-14T06:19:00.323Z,71.85
2023-02-14T06:21:28.143Z,67.50
2023-02-14T06:23:55.886Z,64.65
2023-02-14T06:26:27.881Z,72.05
2023-02-14T06:28:56.296Z,72.05
2023-02-14T06:31:27.835Z,64.80
2023-02-14T06:33:55.922Z,66.88
2023-02-14T06:36:24.639Z,69.95
2023-02-14T06:38:52.608Z,68.40
2023-02-14T06:41:20.317Z,71.20
2023-02-14T06:43:50.743Z,81.85
2023-02-14T06:46:19.149Z,65.20
2023-02-14T06:48:47.407Z,73.13
2023-02-14T06:51:15.237Z,81.45
2023-02-14T06:53:42.977Z,78.75
2023-02-14T06:56:10.741Z,74.07
2023-02-14T06:58:38.419Z,80.07
2023-02-14T07:01:06.062Z,73.45
2023-02-14T07:03:33.685Z,71.07
2023-02-14T07:06:01.483Z,64.93
2023-02-14T07:08:29.242Z,71.72
2023-02-14T07:10:58.330Z,69.30
2023-02-14T07:13:26.370Z,76.72
2023-02-14T07:15:54.124Z,67.55
2023-02-14T07:18:21.796Z,66.47
2023-02-14T07:20:52.436Z,61.58
2023-02-14T07:25:47.639Z,72.20
2023-02-14T07:28:15.359Z,76.20
2023-02-14T07:30:43.007Z,75.82
2023-02-14T07:33:10.783Z,69.55
2023-02-14T07:35:38.511Z,68.25
2023-02-14T07:38:06.249Z,67.55
2023-02-14T07:40:34.037Z,68.57
2023-02-14T07:43:02.223Z,65.65
2023-02-14T07:45:30.135Z,69.60
2023-02-14T07:48:02.039Z,69.40
2023-02-14T07:50:30.445Z,66.35
2023-02-14T07:52:58.096Z,62.45
2023-02-14T07:55:25.840Z,74.75
2023-02-14T07:57:53.733Z,68.65
2023-02-14T08:00:24.430Z,71.07
2023-02-14T08:02:52.308Z,69.30
2023-02-14T08:05:20.425Z,76.88
2023-02-14T08:07:48.839Z,70.25
2023-02-14T08:10:16.860Z,77.38
2023-02-14T08:12:59.566Z,72.00
2023-02-14T08:15:53.322Z,76.68
2023-02-14T08:18:23.333Z,74.45
2023-02-14T08:20:51.213Z,75.67
2023-02-14T08:23:20.356Z,72.38
2023-02-14T08:25:52.539Z,71.78
2023-02-14T08:28:23.313Z,79.88
2023-02-14T08:30:51.444Z,84.00
2023-02-14T08:33:19.727Z,70.90
2023-02-14T08:35:47.558Z,70.32
2023-02-14T08:38:15.225Z,69.43
2023-02-14T08:40:43.344Z,66.00
2023-02-14T08:43:11.320Z,67.00
2023-02-14T08:45:39.577Z,60.28
2023-02-14T08:48:09.796Z,70.60
2023-02-14T08:50:38.550Z,61.50
2023-02-14T08:53:08.558Z,62.88
2023-02-14T08:55:37.996Z,60.08
2023-02-14T08:58:06.746Z,61.30
2023-02-14T09:00:34.544Z,61.75
2023-02-14T09:03:02.413Z,57.25
2023-02-14T09:05:30.230Z,56.35
2023-02-14T09:07:57.937Z,62.90
2023-02-14T09:10:26.105Z,54.22
2023-02-14T09:12:53.790Z,57.47
2023-02-14T09:15:21.435Z,62.90
2023-02-14T09:17:49.318Z,67.90
2023-02-14T09:20:17.117Z,64.97
2023-02-14T09:22:46.097Z,67.07
2023-02-14T09:25:15.053Z,64.60
2023-02-14T09:27:42.756Z,63.65
2023-02-14T09:30:11.178Z,66.03
2023-02-14T09:32:39.442Z,61.30
2023-02-14T09:35:25.929Z,62.90
2023-02-14T09:37:53.645Z,59.17
2023-02-14T09:40:22.100Z,58.53
2023-02-14T09:43:10.743Z,61.63
2023-02-14T09:45:39.502Z,64.57
2023-02-14T09:48:18.390Z,62.83
2023-02-14T09:51:31.806Z,59.60
2023-02-14T09:54:09.394Z,60.85
2023-02-14T09:57:18.090Z,58.78
2023-02-14T10:00:03.073Z,58.53
2023-02-14T10:02:59.568Z,59.75
2023-02-14T10:05:30.767Z,52.75
2023-02-14T10:08:27.747Z,56.13
2023-02-14T10:11:09.043Z,55.97
2023-02-14T10:13:49.410Z,56.60
2023-02-14T10:16:38.974Z,50.60
2023-02-14T10:19:21.423Z,57.53
2023-02-14T10:21:52.243Z,54.15
2023-02-14T10:24:23.576Z,49.15
2023-02-14T10:26:53.351Z,51.78
2023-02-14T10:29:22.095Z,52.63
2023-02-14T10:32:03.142Z,49.63
2023-02-14T10:34:47.993Z,43.55
2023-02-14T10:37:37.627Z,44.55
2023-02-14T10:40:17.555Z,50.78
2023-02-14T10:43:04.102Z,46.20
2023-02-14T10:45:47.442Z,44.88
2023-02-14T10:48:24.514Z,44.70
2023-02-14T10:51:33.979Z,46.08
2023-02-14T10:54:46.855Z,42.95
2023-02-14T10:57:29.400Z,36.95
2023-02-14T11:00:08.104Z,35.53
2023-02-14T11:02:43.130Z,38.65
2023-02-14T11:05:31.560Z,36.67
2023-02-14T11:08:00.130Z,35.63
2023-02-14T11:10:33.010Z,38.92
2023-02-14T11:13:00.803Z,31.88
2023-02-14T11:15:35.799Z,37.25
2023-02-14T11:18:24.037Z,32.55
2023-02-14T11:21:13.606Z,30.40
2023-02-14T11:23:48.405Z,29.63
2023-02-14T11:26:32.995Z,30.25
2023-02-14T11:29:10.244Z,26.15
2023-02-14T11:31:40.267Z,28.38
2023-02-14T11:34:28.919Z,26.23
2023-02-14T11:36:59.161Z,24.85
2023-02-14T11:39:35.942Z,25.42
2023-02-14T11:42:05.756Z,28.40
2023-02-14T11:44:36.902Z,26.35
2023-02-14T11:47:28.736Z,26.25
2023-02-14T11:50:02.411Z,27.42
2023-02-14T11:52:30.849Z,26.38
2023-02-14T11:54:59.382Z,28.60
2023-02-14T11:57:33.429Z,23.52
2023-02-14T12:00:04.973Z,26.15
2023-02-14T12:02:42.217Z,21.45
2023-02-14T12:08:03.479Z,22.83
2023-02-14T12:10:36.517Z,21.08
2023-02-14T12:13:10.394Z,24.95
2023-02-14T12:15:44.239Z,21.45
2023-02-14T12:18:37.056Z,21.92
2023-02-14T12:21:26.209Z,25.92
2023-02-14T12:24:06.456Z,20.90
2023-02-14T12:29:13.304Z,19.52
2023-02-14T12:31:43.522Z,23.20
2023-02-14T12:34:14.714Z,20.15
2023-02-14T12:37:21.769Z,17.13
2023-02-14T12:40:20.275Z,21.85
2023-02-14T12:42:59.947Z,19.55
2023-02-14T12:45:58.348Z,18.80
2023-02-14T12:48:34.995Z,19.95
2023-02-14T12:51:46.914Z,18.23
2023-02-14T12:54:31.897Z,15.15
2023-02-14T12:57:44.903Z,16.83
2023-02-14T13:04:18.178Z,18.73
2023-02-14T13:06:56.996Z,21.90
2023-02-14T13:09:59.271Z,16.50
2023-02-14T13:12:36.309Z,17.42
2023-02-14T13:15:07.136Z,12.75
2023-02-14T13:17:49.213Z,13.52
2023-02-14T13:20:37.036Z,11.18
2023-02-14T13:23:24.566Z,12.60
2023-02-14T13:26:04.001Z,12.80
2023-02-14T13:28:32.725Z,12.20
2023-02-14T13:31:02.039Z,10.68
2023-02-14T13:33:34.923Z,11.25
2023-02-14T13:36:08.271Z,16.05
2023-02-14T13:38:49.017Z,14.25
2023-02-14T13:41:18.161Z,15.98
2023-02-14T13:43:57.096Z,15.15
2023-02-14T13:46:35.558Z,13.88
2023-02-14T13:49:05.997Z,12.27
